createdAt,value
2017-09-23T00:00:30.917Z,22.13
2017-09-23T00:02:57.970Z,19.33
2017-09-23T00:05:25.763Z,16.33
2017-09-23T00:07:53.614Z,21.80
2017-09-23T00:10:20.504Z,19.90
2017-09-23T00:12:47.721Z,19.90
2017-09-23T00:15:14.771Z,22.63
2017-09-23T00:17:42.031Z,18.70
2017-09-23T00:20:09.187Z,17.57
2017-09-23T00:22:36.244Z,18.40
2017-09-23T00:25:03.296Z,17.90
2017-09-23T00:27:30.237Z,18.03
2017-09-23T00:29:57.399Z,19.30
2017-09-23T00:32:24.456Z,30.77
2017-09-23T00:34:51.340Z,16.83
2017-09-23T00:37:18.556Z,17.57
2017-09-23T00:39:46.181Z,18.77
2017-09-23T00:42:13.122Z,20.57
2017-09-23T00:44:40.892Z,20.10
2017-09-23T00:47:07.996Z,18.43
2017-09-23T00:49:35.776Z,23.50
2017-09-23T00:52:03.026Z,17.30
2017-09-23T00:54:30.190Z,16.27
2017-09-23T00:56:57.579Z,17.60
2017-09-23T00:59:25.214Z,20.97
2017-09-23T01:01:52.470Z,18.97
2017-09-23T01:04:19.683Z,20.40
2017-09-23T01:06:46.878Z,17.30
2017-09-23T01:09:14.639Z,15.90
2017-09-23T01:11:41.908Z,15.43
2017-09-23T01:14:08.966Z,15.10
2017-09-23T01:16:36.592Z,18.23
2017-09-23T01:19:03.684Z,14.47
2017-09-23T01:21:30.733Z,17.03
2017-09-23T01:23:57.624Z,15.43
2017-09-23T01:26:24.840Z,13.17
2017-09-23T01:28:51.731Z,14.80
2017-09-23T01:31:18.947Z,15.17
2017-09-23T01:33:46.189Z,14.50
2017-09-23T01:36:13.600Z,19.30
2017-09-23T01:38:40.721Z,18.17
2017-09-23T01:41:07.772Z,18.70
2017-09-23T01:43:34.827Z,15.30
2017-09-23T01:46:01.881Z,15.70
2017-09-23T01:48:29.851Z,16.70
2017-09-23T01:50:56.908Z,15.10
2017-09-23T01:53:23.803Z,15.60
2017-09-23T01:55:51.018Z,19.77
2017-09-23T01:58:17.904Z,14.67
2017-09-23T02:00:45.123Z,15.53
2017-09-23T02:03:12.172Z,12.33
2017-09-23T02:05:39.409Z,14.60
2017-09-23T02:08:06.279Z,14.73
2017-09-23T02:10:33.334Z,14.20
2017-09-23T02:13:00.386Z,16.60
2017-09-23T02:15:28.127Z,14.80
2017-09-23T02:17:55.258Z,15.83
2017-09-23T02:20:22.659Z,21.03
2017-09-23T02:22:49.826Z,14.90
2017-09-23T02:25:17.204Z,14.87
2017-09-23T02:27:44.241Z,14.47
2017-09-23T02:30:11.296Z,14.57
2017-09-23T02:32:38.352Z,15.07
2017-09-23T02:35:05.760Z,17.57
2017-09-23T02:37:32.765Z,16.90
2017-09-23T02:40:00.120Z,19.93
2017-09-23T02:42:27.785Z,14.67
2017-09-23T02:44:54.839Z,16.40
2017-09-23T02:47:21.727Z,12.30
2017-09-23T02:49:48.945Z,16.73
2017-09-23T02:52:15.998Z,17.37
2017-09-23T02:54:43.634Z,14.83
2017-09-23T02:57:11.292Z,17.30
2017-09-23T02:59:38.392Z,14.37
2017-09-23T03:02:05.282Z,17.60
2017-09-23T03:04:32.673Z,19.57
2017-09-23T03:06:59.544Z,16.20
2017-09-23T03:09:26.599Z,23.43
2017-09-23T03:11:54.271Z,15.97
2017-09-23T03:14:21.330Z,13.13
2017-09-23T03:16:49.102Z,15.90
2017-09-23T03:19:16.350Z,25.00
2017-09-23T03:21:43.401Z,19.53
2017-09-23T03:24:10.641Z,18.40
2017-09-23T03:26:37.653Z,19.13
2017-09-23T03:29:04.558Z,15.80
2017-09-23T03:31:32.429Z,14.00
2017-09-23T03:33:59.894Z,14.00
2017-09-23T03:36:27.145Z,18.00
2017-09-23T03:38:54.306Z,15.33
2017-09-23T03:41:21.362Z,20.67
2017-09-23T03:43:48.411Z,21.43
2017-09-23T03:46:15.464Z,32.83
2017-09-23T03:48:42.522Z,19.40
2017-09-23T03:51:09.571Z,16.67
2017-09-23T03:53:36.630Z,17.53
2017-09-23T03:56:03.515Z,17.17
2017-09-23T03:58:31.040Z,15.57
2017-09-23T04:00:58.705Z,17.07
2017-09-23T04:03:25.601Z,21.77
2017-09-23T04:05:53.000Z,19.10
2017-09-23T04:08:20.168Z,16.50
2017-09-23T04:10:47.224Z,18.73
2017-09-23T04:13:14.277Z,18.43
2017-09-23T04:15:41.328Z,19.63
2017-09-23T04:18:08.382Z,21.23
2017-09-23T04:20:35.275Z,15.60
2017-09-23T04:23:02.492Z,18.50
2017-09-23T04:25:29.384Z,16.73
2017-09-23T04:27:56.596Z,18.73
2017-09-23T04:30:24.011Z,17.47
2017-09-23T04:32:50.840Z,16.33
2017-09-23T04:35:17.611Z,16.33
2017-09-23T04:37:44.399Z,15.10
2017-09-23T04:40:11.158Z,17.30
2017-09-23T04:42:37.925Z,19.60
2017-09-23T04:45:04.736Z,14.30
2017-09-23T04:47:31.488Z,18.80
2017-09-23T04:49:58.742Z,17.87
2017-09-23T04:52:25.528Z,17.30
2017-09-23T04:54:52.918Z,18.43
2017-09-23T04:57:19.739Z,18.70
2017-09-23T04:59:46.546Z,17.97
2017-09-23T05:02:13.327Z,19.53
2017-09-23T05:04:40.109Z,17.60
2017-09-23T05:07:06.904Z,17.40
2017-09-23T05:09:33.671Z,19.87
2017-09-23T05:12:01.416Z,17.20
2017-09-23T05:14:28.219Z,16.17
2017-09-23T05:16:55.013Z,17.43
2017-09-23T05:19:21.763Z,16.53
2017-09-23T05:21:48.542Z,16.33
2017-09-23T05:24:15.308Z,19.93
2017-09-23T05:26:42.083Z,16.67
2017-09-23T05:29:08.879Z,15.43
2017-09-23T05:31:35.656Z,17.33
2017-09-23T05:34:03.982Z,15.70
2017-09-23T05:36:30.801Z,17.30
2017-09-23T05:38:57.574Z,17.10
2017-09-23T05:41:24.323Z,16.10
2017-09-23T05:43:51.117Z,16.47
2017-09-23T05:46:17.875Z,22.30
2017-09-23T05:48:44.622Z,15.17
2017-09-23T05:51:12.486Z,13.50
2017-09-23T05:53:39.259Z,14.60
2017-09-23T05:56:06.024Z,11.57
2017-09-23T05:58:32.830Z,14.77
2017-09-23T06:00:59.592Z,15.97
2017-09-23T06:03:26.391Z,13.70
2017-09-23T06:05:53.175Z,11.40
2017-09-23T06:08:20.795Z,12.43
2017-09-23T06:10:47.562Z,13.90
2017-09-23T06:13:14.363Z,13.57
2017-09-23T06:15:41.816Z,13.10
2017-09-23T06:18:08.572Z,14.97
2017-09-23T06:20:35.937Z,13.97
2017-09-23T06:23:02.706Z,14.33
2017-09-23T06:25:29.463Z,14.77
2017-09-23T06:27:56.276Z,16.10
2017-09-23T06:30:23.722Z,18.00
2017-09-23T06:32:50.463Z,18.33
2017-09-23T06:35:17.242Z,19.43
2017-09-23T06:37:44.007Z,18.73
2017-09-23T06:40:10.760Z,14.37
2017-09-23T06:42:37.581Z,18.80
2017-09-23T06:45:04.349Z,22.57
2017-09-23T06:47:31.155Z,18.10
2017-09-23T06:49:57.969Z,16.37
2017-09-23T06:52:25.082Z,17.67
2017-09-23T06:54:51.879Z,16.20
2017-09-23T06:57:18.689Z,16.80
2017-09-23T06:59:45.472Z,16.63
2017-09-23T07:02:12.892Z,13.93
2017-09-23T07:04:39.705Z,14.33
2017-09-23T07:07:06.448Z,12.60
2017-09-23T07:09:33.192Z,12.57
2017-09-23T07:11:59.992Z,15.10
2017-09-23T07:14:26.772Z,14.13
2017-09-23T07:16:53.567Z,21.40
2017-09-23T07:19:20.351Z,15.30
2017-09-23T07:21:47.407Z,14.53
2017-09-23T07:24:14.537Z,22.70
2017-09-23T07:26:41.352Z,12.10
2017-09-23T07:29:09.108Z,14.80
2017-09-23T07:31:35.879Z,13.53
2017-09-23T07:34:02.805Z,15.37
2017-09-23T07:36:29.551Z,17.33
2017-09-23T07:38:56.917Z,18.33
2017-09-23T07:41:23.717Z,16.33
2017-09-23T07:43:50.505Z,12.83
2017-09-23T07:46:17.271Z,18.13
2017-09-23T07:48:44.083Z,14.03
2017-09-23T07:51:10.836Z,18.93
2017-09-23T07:53:37.592Z,15.90
2017-09-23T07:56:04.399Z,22.40
2017-09-23T07:58:31.147Z,23.10
2017-09-23T08:00:57.918Z,17.83
2017-09-23T08:03:25.058Z,14.43
2017-09-23T08:05:51.918Z,16.03
2017-09-23T08:08:18.708Z,13.93
2017-09-23T08:10:45.528Z,16.90
2017-09-23T08:13:12.326Z,18.60
2017-09-23T08:15:39.087Z,15.70
2017-09-23T08:18:06.076Z,17.17
2017-09-23T08:20:32.917Z,17.43
2017-09-23T08:22:59.687Z,18.57
2017-09-23T08:25:26.560Z,20.37
2017-09-23T08:27:53.311Z,20.67
2017-09-23T08:30:20.134Z,19.43
2017-09-23T08:32:46.948Z,15.43
2017-09-23T08:35:13.726Z,15.07
2017-09-23T08:37:40.494Z,16.80
2017-09-23T08:40:08.336Z,14.87
2017-09-23T08:42:35.492Z,12.77
2017-09-23T08:45:02.248Z,11.37
2017-09-23T08:47:29.048Z,13.90
2017-09-23T08:49:55.823Z,13.93
2017-09-23T08:52:22.586Z,14.03
2017-09-23T08:54:49.379Z,14.37
2017-09-23T08:57:16.123Z,12.47
2017-09-23T08:59:42.886Z,13.50
2017-09-23T09:02:09.880Z,13.13
2017-09-23T09:04:36.640Z,15.63
2017-09-23T09:07:03.414Z,14.93
2017-09-23T09:09:30.215Z,14.87
2017-09-23T09:11:56.984Z,17.43
2017-09-23T09:14:23.779Z,18.70
2017-09-23T09:16:50.599Z,16.10
2017-09-23T09:19:17.355Z,14.70
2017-09-23T09:21:44.703Z,14.13
2017-09-23T09:24:11.642Z,15.97
2017-09-23T09:26:38.415Z,15.57
2017-09-23T09:29:05.186Z,19.40
2017-09-23T09:31:31.998Z,15.93
2017-09-23T09:33:58.748Z,14.03
2017-09-23T09:36:25.516Z,14.20
2017-09-23T09:38:52.362Z,11.13
2017-09-23T09:41:19.141Z,15.50
2017-09-23T09:43:45.926Z,11.23
2017-09-23T09:46:12.746Z,13.00
2017-09-23T09:48:39.511Z,12.03
2017-09-23T09:51:06.267Z,10.17
2017-09-23T09:53:33.055Z,11.23
2017-09-23T09:55:59.830Z,10.93
2017-09-23T09:58:26.576Z,10.53
2017-09-23T10:00:53.381Z,12.20
2017-09-23T10:03:20.157Z,10.87
2017-09-23T10:05:46.921Z,10.20
2017-09-23T10:08:13.733Z,11.00
2017-09-23T10:10:40.487Z,13.07
2017-09-23T10:13:07.240Z,17.73
2017-09-23T10:15:34.042Z,11.60
2017-09-23T10:18:00.818Z,11.93
2017-09-23T10:20:27.591Z,14.20
2017-09-23T10:22:54.409Z,12.63
2017-09-23T10:25:22.078Z,14.87
2017-09-23T10:27:49.173Z,10.73
2017-09-23T10:30:15.984Z,13.87
2017-09-23T10:32:42.762Z,14.30
2017-09-23T10:35:09.528Z,13.13
2017-09-23T10:37:36.332Z,13.37
2017-09-23T10:40:03.094Z,11.60
2017-09-23T10:42:29.855Z,13.20
2017-09-23T10:44:56.649Z,11.07
2017-09-23T10:47:23.424Z,15.47
2017-09-23T10:49:50.375Z,17.63
2017-09-23T10:52:17.175Z,15.07
2017-09-23T10:54:43.953Z,12.60
2017-09-23T10:57:10.706Z,15.40
2017-09-23T10:59:37.502Z,12.83
2017-09-23T11:02:04.243Z,10.67
2017-09-23T11:04:30.983Z,11.50
2017-09-23T11:06:57.808Z,11.17
2017-09-23T11:09:24.574Z,12.43
2017-09-23T11:11:51.364Z,15.20
2017-09-23T11:14:18.161Z,11.23
2017-09-23T11:16:44.975Z,12.47
2017-09-23T11:19:12.450Z,10.90
2017-09-23T11:21:39.248Z,13.70
2017-09-23T11:24:05.993Z,8.70
2017-09-23T11:26:32.751Z,9.90
2017-09-23T11:28:59.560Z,16.73
2017-09-23T11:31:26.304Z,13.47
2017-09-23T11:33:53.078Z,13.63
2017-09-23T11:36:19.871Z,14.67
2017-09-23T11:38:46.694Z,18.43
2017-09-23T11:41:13.458Z,12.30
2017-09-23T11:43:40.251Z,13.90
2017-09-23T11:46:07.024Z,11.30
2017-09-23T11:48:33.781Z,10.30
2017-09-23T11:51:00.563Z,15.93
2017-09-23T11:53:27.923Z,13.07
2017-09-23T11:55:54.675Z,10.50
2017-09-23T11:58:21.476Z,11.93
2017-09-23T12:00:48.220Z,11.17
2017-09-23T12:03:14.974Z,10.40
2017-09-23T12:05:41.803Z,12.37
2017-09-23T12:08:08.556Z,13.67
2017-09-23T12:10:35.301Z,14.10
2017-09-23T12:13:02.107Z,7.77
2017-09-23T12:15:28.844Z,13.87
2017-09-23T12:17:55.598Z,8.93
2017-09-23T12:20:22.430Z,10.27
2017-09-23T12:22:49.206Z,9.27
2017-09-23T12:25:15.975Z,8.70
2017-09-23T12:27:42.777Z,10.43
2017-09-23T12:30:09.528Z,8.53
2017-09-23T12:32:36.267Z,10.23
2017-09-23T12:35:03.074Z,10.13
2017-09-23T12:37:29.859Z,8.50
2017-09-23T12:39:56.659Z,9.13
2017-09-23T12:42:23.567Z,11.30
2017-09-23T12:44:50.320Z,9.40
2017-09-23T12:47:17.060Z,12.67
2017-09-23T12:49:43.850Z,9.20
2017-09-23T12:52:10.589Z,8.30
2017-09-23T12:54:37.365Z,8.97
2017-09-23T12:57:04.808Z,10.67
2017-09-23T12:59:31.830Z,9.27
2017-09-23T13:01:58.582Z,8.73
2017-09-23T13:04:25.356Z,7.10
2017-09-23T13:06:52.102Z,8.43
2017-09-23T13:09:18.842Z,8.13
2017-09-23T13:11:45.641Z,6.90
2017-09-23T13:14:13.042Z,6.67
2017-09-23T13:16:39.794Z,6.67
2017-09-23T13:19:06.584Z,6.80
2017-09-23T13:21:33.363Z,5.77
2017-09-23T13:24:00.122Z,6.10
2017-09-23T13:26:26.922Z,5.50
2017-09-23T13:28:53.673Z,6.50
2017-09-23T13:31:20.428Z,8.13
2017-09-23T13:33:47.211Z,7.17
2017-09-23T13:36:13.989Z,7.73
2017-09-23T13:38:40.747Z,5.07
2017-09-23T13:41:07.538Z,6.27
2017-09-23T13:43:34.311Z,5.10
2017-09-23T13:46:01.063Z,6.07
2017-09-23T13:48:27.869Z,5.00
2017-09-23T13:50:54.643Z,4.83
2017-09-23T13:53:21.389Z,4.47
2017-09-23T13:55:48.213Z,4.40
2017-09-23T13:58:14.993Z,5.40
2017-09-23T14:00:41.748Z,6.50
2017-09-23T14:03:08.533Z,4.53
2017-09-23T14:05:35.782Z,7.70
2017-09-23T14:08:02.528Z,3.63
2017-09-23T14:10:29.965Z,5.17
2017-09-23T14:12:56.700Z,4.50
2017-09-23T14:15:23.472Z,5.60
2017-09-23T14:17:50.252Z,5.83
2017-09-23T14:20:17.014Z,5.63
2017-09-23T14:22:43.783Z,6.00
2017-09-23T14:25:10.563Z,4.70
2017-09-23T14:27:37.303Z,5.27
2017-09-23T14:30:04.056Z,4.87
2017-09-23T14:32:31.185Z,5.93
2017-09-23T14:34:58.207Z,5.77
2017-09-23T14:37:25.661Z,5.37
2017-09-23T14:39:52.466Z,4.70
2017-09-23T14:42:20.617Z,4.57
2017-09-23T14:44:47.373Z,4.60
2017-09-23T14:47:14.190Z,6.63
2017-09-23T14:49:41.826Z,5.10
2017-09-23T14:52:09.112Z,9.07
2017-09-23T14:54:35.918Z,6.40
2017-09-23T14:57:03.718Z,4.20
2017-09-23T14:59:30.506Z,6.20
2017-09-23T15:01:57.298Z,5.00
2017-09-23T15:04:24.062Z,6.20
2017-09-23T15:06:50.835Z,5.23
2017-09-23T15:09:17.948Z,5.37
2017-09-23T15:11:45.451Z,6.90
2017-09-23T15:14:12.313Z,5.77
2017-09-23T15:16:39.114Z,7.43
2017-09-23T15:19:05.893Z,6.47
2017-09-23T15:21:32.718Z,7.53
2017-09-23T15:23:59.534Z,6.00
2017-09-23T15:26:26.272Z,6.87
2017-09-23T15:28:53.027Z,7.33
2017-09-23T15:31:20.776Z,4.90
2017-09-23T15:33:47.539Z,6.33
2017-09-23T15:36:14.347Z,6.07
2017-09-23T15:38:41.165Z,6.70
2017-09-23T15:41:07.940Z,7.07
2017-09-23T15:43:34.739Z,9.30
2017-09-23T15:46:01.560Z,7.13
2017-09-23T15:48:28.547Z,10.63
2017-09-23T15:50:55.299Z,8.03
2017-09-23T15:53:22.102Z,8.13
2017-09-23T15:55:48.860Z,9.13
2017-09-23T15:58:16.412Z,7.57
2017-09-23T16:00:43.206Z,10.13
2017-09-23T16:03:09.980Z,8.03
2017-09-23T16:05:36.767Z,8.30
2017-09-23T16:08:04.164Z,9.23
2017-09-23T16:10:30.935Z,9.00
2017-09-23T16:12:57.788Z,7.13
2017-09-23T16:15:24.913Z,7.83
2017-09-23T16:17:51.659Z,8.03
2017-09-23T16:20:18.432Z,9.27
2017-09-23T16:22:45.264Z,11.30
2017-09-23T16:27:50.560Z,9.70
2017-09-23T16:30:17.326Z,9.13
2017-09-23T16:32:44.721Z,9.80
2017-09-23T16:35:11.517Z,10.13
2017-09-23T16:37:38.256Z,9.73
2017-09-23T16:40:05.017Z,8.50
2017-09-23T16:42:31.799Z,8.03
2017-09-23T16:44:58.551Z,10.60
2017-09-23T16:47:25.945Z,9.37
2017-09-23T16:49:52.739Z,8.70
2017-09-23T16:52:20.131Z,10.63
2017-09-23T16:54:46.887Z,10.00
2017-09-23T16:57:13.740Z,10.50
2017-09-23T16:59:40.492Z,11.70
2017-09-23T17:02:07.248Z,11.23
2017-09-23T17:04:34.048Z,11.63
2017-09-23T17:07:00.798Z,14.23
2017-09-23T17:09:27.576Z,11.60
2017-09-23T17:11:54.357Z,10.97
2017-09-23T17:14:21.127Z,13.23
2017-09-23T17:16:47.910Z,10.43
2017-09-23T17:19:14.706Z,10.53
2017-09-23T17:21:42.245Z,14.10
2017-09-23T17:24:09.025Z,12.37
2017-09-23T17:29:08.951Z,13.87
2017-09-23T17:31:35.753Z,14.90
2017-09-23T17:34:02.492Z,17.37
2017-09-23T17:36:29.267Z,17.23
2017-09-23T17:38:56.072Z,12.63
2017-09-23T17:41:22.820Z,12.07
2017-09-23T17:43:49.606Z,16.93
2017-09-23T17:46:16.401Z,17.90
2017-09-23T17:48:43.179Z,17.33
2017-09-23T17:51:09.942Z,23.97
2017-09-23T17:53:36.730Z,25.77
2017-09-23T17:56:03.700Z,23.90
2017-09-23T17:58:30.444Z,25.47
2017-09-23T18:00:57.274Z,35.93
2017-09-23T18:03:24.048Z,46.60
2017-09-23T18:05:50.796Z,44.63
2017-09-23T18:08:17.650Z,43.77
2017-09-23T18:10:44.395Z,41.27
2017-09-23T18:13:11.197Z,39.33
2017-09-23T18:15:38.007Z,35.43
2017-09-23T18:18:04.792Z,26.80
2017-09-23T18:20:31.556Z,23.43
2017-09-23T18:22:58.361Z,25.37
2017-09-23T18:25:25.398Z,22.27
2017-09-23T18:27:52.166Z,33.17
2017-09-23T18:30:18.978Z,30.53
2017-09-23T18:32:45.723Z,25.47
2017-09-23T18:35:12.490Z,24.80
2017-09-23T18:37:39.297Z,24.60
2017-09-23T18:40:06.072Z,25.57
2017-09-23T18:42:32.859Z,20.83
2017-09-23T18:44:59.669Z,23.97
2017-09-23T18:47:26.466Z,23.17
2017-09-23T18:49:53.237Z,23.10
2017-09-23T18:52:20.086Z,29.00
2017-09-23T18:54:46.866Z,23.63
2017-09-23T18:57:13.631Z,19.53
2017-09-23T18:59:41.069Z,24.63
2017-09-23T19:02:07.826Z,19.27
2017-09-23T19:04:34.573Z,20.90
2017-09-23T19:07:01.405Z,17.93
2017-09-23T19:09:28.186Z,20.03
2017-09-23T19:11:54.940Z,19.70
2017-09-23T19:14:21.744Z,20.23
2017-09-23T19:16:48.513Z,22.57
2017-09-23T19:19:15.295Z,18.07
2017-09-23T19:21:42.108Z,19.47
2017-09-23T19:24:08.898Z,19.47
2017-09-23T19:26:35.672Z,22.80
2017-09-23T19:29:02.465Z,21.53
2017-09-23T19:31:29.224Z,21.80
2017-09-23T19:33:56.706Z,26.43
2017-09-23T19:36:23.518Z,23.87
2017-09-23T19:38:50.288Z,25.67
2017-09-23T19:41:17.049Z,30.90
2017-09-23T19:43:43.840Z,21.73
2017-09-23T19:46:10.592Z,20.93
2017-09-23T19:48:37.373Z,23.70
2017-09-23T19:51:04.378Z,31.27
2017-09-23T19:53:31.128Z,30.83
2017-09-23T19:55:57.888Z,28.20
2017-09-23T19:58:24.695Z,21.07
2017-09-23T20:00:51.470Z,24.77
2017-09-23T20:03:18.227Z,25.80
2017-09-23T20:05:45.368Z,22.63
2017-09-23T20:08:12.123Z,27.43
2017-09-23T20:10:38.940Z,23.53
2017-09-23T20:13:05.716Z,21.97
2017-09-23T20:15:32.463Z,26.33
2017-09-23T20:17:59.240Z,20.80
2017-09-23T20:20:26.775Z,28.33
2017-09-23T20:22:53.528Z,23.90
2017-09-23T20:25:20.332Z,23.87
2017-09-23T20:27:47.116Z,23.43
2017-09-23T20:30:13.882Z,25.70
2017-09-23T20:32:40.639Z,20.40
2017-09-23T20:35:07.448Z,24.37
2017-09-23T20:37:34.208Z,21.43
2017-09-23T20:40:00.987Z,24.20
2017-09-23T20:42:27.764Z,24.87
2017-09-23T20:44:54.535Z,18.80
2017-09-23T20:47:21.318Z,20.20
2017-09-23T20:49:48.123Z,19.43
2017-09-23T20:52:14.890Z,20.60
2017-09-23T20:54:41.654Z,21.73
2017-09-23T20:57:08.483Z,22.23
2017-09-23T20:59:35.231Z,19.80
2017-09-23T21:02:02.039Z,19.97
2017-09-23T21:04:28.824Z,19.90
2017-09-23T21:06:55.601Z,20.93
2017-09-23T21:09:22.370Z,23.97
2017-09-23T21:11:49.183Z,22.17
2017-09-23T21:14:15.931Z,20.17
2017-09-23T21:16:42.711Z,21.70
2017-09-23T21:19:09.964Z,22.10
2017-09-23T21:21:36.716Z,19.57
2017-09-23T21:24:03.490Z,25.10
2017-09-23T21:26:30.290Z,20.20
2017-09-23T21:28:57.061Z,26.83
2017-09-23T21:31:23.831Z,26.93
2017-09-23T21:33:50.643Z,25.70
2017-09-23T21:36:17.396Z,19.17
2017-09-23T21:38:44.156Z,19.77
2017-09-23T21:41:11.125Z,19.40
2017-09-23T21:43:37.890Z,18.63
2017-09-23T21:46:04.935Z,20.70
2017-09-23T21:48:31.751Z,20.90
2017-09-23T21:50:58.507Z,17.07
2017-09-23T21:53:25.271Z,20.73
2017-09-23T21:55:52.055Z,21.00
2017-09-23T21:58:18.814Z,22.97
2017-09-23T22:00:45.580Z,21.00
2017-09-23T22:03:12.412Z,20.27
2017-09-23T22:05:39.151Z,21.03
2017-09-23T22:08:05.899Z,19.20
2017-09-23T22:10:32.707Z,19.60
2017-09-23T22:12:59.462Z,18.30
2017-09-23T22:15:26.230Z,18.60
2017-09-23T22:17:53.007Z,22.90
2017-09-23T22:20:19.783Z,17.47
2017-09-23T22:22:46.536Z,21.30
2017-09-23T22:25:13.342Z,18.40
2017-09-23T22:27:40.099Z,18.23
2017-09-23T22:30:07.046Z,20.70
2017-09-23T22:32:33.846Z,16.83
2017-09-23T22:35:00.587Z,16.70
2017-09-23T22:37:27.350Z,18.83
2017-09-23T22:39:54.145Z,17.10
2017-09-23T22:42:20.905Z,20.40
2017-09-23T22:44:48.085Z,16.00
2017-09-23T22:47:15.191Z,17.50
2017-09-23T22:49:42.439Z,21.50
2017-09-23T22:52:09.201Z,15.77
2017-09-23T22:54:35.987Z,18.90
2017-09-23T22:57:02.742Z,16.17
2017-09-23T22:59:29.511Z,20.40
2017-09-23T23:01:56.311Z,17.80
2017-09-23T23:04:23.061Z,19.00
2017-09-23T23:06:49.849Z,21.20
2017-09-23T23:09:16.628Z,20.60
2017-09-23T23:11:43.375Z,22.67
2017-09-23T23:14:10.124Z,22.20
2017-09-23T23:16:36.908Z,24.60
2017-09-23T23:19:03.662Z,23.83
2017-09-23T23:21:30.442Z,24.57
2017-09-23T23:23:57.251Z,23.87
2017-09-23T23:26:24.017Z,25.53
2017-09-23T23:28:50.787Z,28.80
2017-09-23T23:31:17.594Z,26.47
2017-09-23T23:33:44.343Z,25.97
2017-09-23T23:36:11.102Z,24.40
2017-09-23T23:38:37.911Z,29.43
2017-09-23T23:41:04.655Z,23.20
2017-09-23T23:43:31.395Z,23.67
2017-09-23T23:45:58.185Z,27.30
2017-09-23T23:48:24.924Z,22.80
2017-09-23T23:50:51.671Z,25.03
2017-09-23T23:53:18.456Z,28.10
2017-09-23T23:55:45.218Z,31.97
2017-09-23T23:58:11.971Z,24.00
